首页
METAR-TAF:

METAR-TAF

机场 :

奥斯陆加勒穆恩机场

奥斯陆, 挪威

纬度: 60-12N, 经度: 011-05E, 海拔: 208米

当前天气观测

该预报发布于37分钟前的06:20 UTC
风速6节,风向北转东北
温度 11°C
湿度 94%
气压 1012 hPa
能见度10公里或以上
散云层高于300英尺
多云层高于1200英尺
小雨

METAR: ENGM 190620Z 03006KT 9999 -RA SCT003 BKN012 11/10 Q1012 TEMPO BKN015

时间: 08:57 (06:57 UTC)

预报

预报有效从19日的 06点(UTC)到 20日的 06点(UTC)
风速8节,风向北转东北
能见度10公里或以上
少量云层高于500英尺
多云层高于2000英尺
短暂存在
从 19日的 06点(UTC)到 19日的 10点(UTC)
能見度: 4000
多云层高于600英尺

TAF: ENGM 1906/2006 03008KT 9999 FEW005 BKN020 TEMPO 1906/1910 4000 RA BKN006

超过4000个机场的气象观测和天气预报(METAR&TAF报告)。

可查询的气象台以黄色和红色小点在地图上表示。

将鼠标移到小点上方,可查看气象台名称。

然后点击查看天气观测和预报。

如需切换地图:点击带黑十字的绿色按钮放大地图;点击带横线的绿色按钮缩小地图;或者点击绿色箭头查看邻近地区的地图。


METAR-TAF: